sensor_id;sensor_type;location;lat;lon;timestamp;temperature;humidity
15698;DHT22;7949;48.726;9.102;2022-11-15T00:02:09;7.60;99.90
15698;DHT22;7949;48.726;9.102;2022-11-15T00:04:36;7.70;99.90
15698;DHT22;7949;48.726;9.102;2022-11-15T00:07:04;7.70;99.90
15698;DHT22;7949;48.726;9.102;2022-11-15T00:09:31;7.80;99.90
15698;DHT22;7949;48.726;9.102;2022-11-15T00:11:58;8.00;99.90
15698;DHT22;7949;48.726;9.102;2022-11-15T00:14:25;8.00;99.90
15698;DHT22;7949;48.726;9.102;2022-11-15T00:16:51;8.10;99.90
15698;DHT22;7949;48.726;9.102;2022-11-15T00:19:18;8.20;99.90
15698;DHT22;7949;48.726;9.102;2022-11-15T00:21:45;8.30;99.90
15698;DHT22;7949;48.726;9.102;2022-11-15T00:24:13;8.50;99.90
15698;DHT22;7949;48.726;9.102;2022-11-15T00:26:40;8.50;99.90
15698;DHT22;7949;48.726;9.102;2022-11-15T00:29:07;8.60;99.90
15698;DHT22;7949;48.726;9.102;2022-11-15T00:31:33;8.70;99.90
15698;DHT22;7949;48.726;9.102;2022-11-15T00:34:00;8.70;99.90
15698;DHT22;7949;48.726;9.102;2022-11-15T00:36:27;8.70;99.90
15698;DHT22;7949;48.726;9.102;2022-11-15T00:38:54;8.70;99.90
15698;DHT22;7949;48.726;9.102;2022-11-15T00:41:22;8.80;99.90
15698;DHT22;7949;48.726;9.102;2022-11-15T00:43:48;8.80;99.90
15698;DHT22;7949;48.726;9.102;2022-11-15T00:46:15;8.80;99.90
15698;DHT22;7949;48.726;9.102;2022-11-15T00:48:42;8.80;99.90
15698;DHT22;7949;48.726;9.102;2022-11-15T00:51:09;8.80;99.90
15698;DHT22;7949;48.726;9.102;2022-11-15T00:53:35;8.80;99.90
15698;DHT22;7949;48.726;9.102;2022-11-15T00:56:02;8.90;99.90
15698;DHT22;7949;48.726;9.102;2022-11-15T00:58:31;8.90;99.90
15698;DHT22;7949;48.726;9.102;2022-11-15T01:01:05;9.00;99.90
15698;DHT22;7949;48.726;9.102;2022-11-15T01:03:32;9.00;99.90
15698;DHT22;7949;48.726;9.102;2022-11-15T01:05:59;9.00;99.90
15698;DHT22;7949;48.726;9.102;2022-11-15T01:08:26;9.20;99.90
15698;DHT22;7949;48.726;9.102;2022-11-15T01:10:53;9.10;99.90
15698;DHT22;7949;48.726;9.102;2022-11-15T01:13:20;9.10;99.90
15698;DHT22;7949;48.726;9.102;2022-11-15T01:15:48;9.10;99.90
15698;DHT22;7949;48.726;9.102;2022-11-15T01:18:15;9.20;99.90
15698;DHT22;7949;48.726;9.102;2022-11-15T01:20:42;9.30;99.90
15698;DHT22;7949;48.726;9.102;2022-11-15T01:23:09;9.20;99.90
15698;DHT22;7949;48.726;9.102;2022-11-15T01:25:36;9.30;99.90
15698;DHT22;7949;48.726;9.102;2022-11-15T01:28:03;9.30;99.90
15698;DHT22;7949;48.726;9.102;2022-11-15T01:30:30;9.20;99.90
15698;DHT22;7949;48.726;9.102;2022-11-15T01:32:58;9.20;99.90
15698;DHT22;7949;48.726;9.102;2022-11-15T01:35:25;9.20;99.90
15698;DHT22;7949;48.726;9.102;2022-11-15T01:37:52;9.10;99.90
15698;DHT22;7949;48.726;9.102;2022-11-15T01:40:19;9.30;99.90
15698;DHT22;7949;48.726;9.102;2022-11-15T01:42:45;9.00;99.90
15698;DHT22;7949;48.726;9.102;2022-11-15T01:45:14;8.90;99.90
15698;DHT22;7949;48.726;9.102;2022-11-15T01:47:43;8.80;99.90
15698;DHT22;7949;48.726;9.102;2022-11-15T01:50:16;8.70;99.90
15698;DHT22;7949;48.726;9.102;2022-11-15T01:52:43;8.50;99.90
15698;DHT22;7949;48.726;9.102;2022-11-15T01:55:13;8.40;99.90
15698;DHT22;7949;48.726;9.102;2022-11-15T01:57:42;8.20;99.90
15698;DHT22;7949;48.726;9.102;2022-11-15T02:00:12;8.10;99.90
15698;DHT22;7949;48.726;9.102;2022-11-15T02:02:40;7.90;99.90
15698;DHT22;7949;48.726;9.102;2022-11-15T02:05:07;7.80;99.90
15698;DHT22;7949;48.726;9.102;2022-11-15T02:07:36;7.70;99.90
15698;DHT22;7949;48.726;9.102;2022-11-15T02:10:07;7.60;99.90
15698;DHT22;7949;48.726;9.102;2022-11-15T02:12:35;7.70;99.90
15698;DHT22;7949;48.726;9.102;2022-11-15T02:15:02;7.80;99.90
15698;DHT22;7949;48.726;9.102;2022-11-15T02:17:50;7.70;99.90
15698;DHT22;7949;48.726;9.102;2022-11-15T02:20:41;7.70;99.90
15698;DHT22;7949;48.726;9.102;2022-11-15T02:26:30;7.60;99.90
15698;DHT22;7949;48.726;9.102;2022-11-15T02:29:02;7.40;99.90
15698;DHT22;7949;48.726;9.102;2022-11-15T02:31:36;7.30;99.90
15698;DHT22;7949;48.726;9.102;2022-11-15T02:34:11;7.20;99.90
15698;DHT22;7949;48.726;9.102;2022-11-15T02:36:46;7.10;99.90
15698;DHT22;7949;48.726;9.102;2022-11-15T02:39:23;7.10;99.90
15698;DHT22;7949;48.726;9.102;2022-11-15T02:41:55;6.90;99.90
15698;DHT22;7949;48.726;9.102;2022-11-15T02:44:26;6.90;99.90
15698;DHT22;7949;48.726;9.102;2022-11-15T02:46:59;6.80;99.90
15698;DHT22;7949;48.726;9.102;2022-11-15T02:49:43;6.90;99.90
15698;DHT22;7949;48.726;9.102;2022-11-15T02:52:15;6.80;99.90
15698;DHT22;7949;48.726;9.102;2022-11-15T02:54:42;6.80;99.90
15698;DHT22;7949;48.726;9.102;2022-11-15T02:57:13;6.70;99.90
15698;DHT22;7949;48.726;9.102;2022-11-15T03:00:04;6.70;99.90
15698;DHT22;7949;48.726;9.102;2022-11-15T03:02:49;6.60;99.90
15698;DHT22;7949;48.726;9.102;2022-11-15T03:05:23;6.60;99.90
15698;DHT22;7949;48.726;9.102;2022-11-15T03:07:54;6.50;99.90
15698;DHT22;7949;48.726;9.102;2022-11-15T03:10:30;6.50;99.90
15698;DHT22;7949;48.726;9.102;2022-11-15T03:13:05;6.50;99.90
15698;DHT22;7949;48.726;9.102;2022-11-15T03:15:41;6.40;99.90
15698;DHT22;7949;48.726;9.102;2022-11-15T03:18:17;6.30;99.90
15698;DHT22;7949;48.726;9.102;2022-11-15T03:20:46;6.30;99.90
15698;DHT22;7949;48.726;9.102;2022-11-15T03:23:15;6.30;99.90
15698;DHT22;7949;48.726;9.102;2022-11-15T03:25:46;6.20;99.90
15698;DHT22;7949;48.726;9.102;2022-11-15T03:28:19;6.20;99.90
15698;DHT22;7949;48.726;9.102;2022-11-15T03:30:49;6.20;99.90
15698;DHT22;7949;48.726;9.102;2022-11-15T03:33:20;6.20;99.90
15698;DHT22;7949;48.726;9.102;2022-11-15T03:35:48;6.10;99.90
15698;DHT22;7949;48.726;9.102;2022-11-15T03:38:19;6.20;99.90
15698;DHT22;7949;48.726;9.102;2022-11-15T03:40:53;6.20;99.90
15698;DHT22;7949;48.726;9.102;2022-11-15T03:43:30;6.20;99.90
15698;DHT22;7949;48.726;9.102;2022-11-15T03:46:02;6.20;99.90
15698;DHT22;7949;48.726;9.102;2022-11-15T03:48:35;6.20;99.90
15698;DHT22;7949;48.726;9.102;2022-11-15T03:51:04;6.20;99.90
15698;DHT22;7949;48.726;9.102;2022-11-15T03:53:31;6.30;99.90
15698;DHT22;7949;48.726;9.102;2022-11-15T03:55:58;6.40;99.90
15698;DHT22;7949;48.726;9.102;2022-11-15T03:58:25;6.40;99.90
15698;DHT22;7949;48.726;9.102;2022-11-15T04:00:52;6.40;99.90
15698;DHT22;7949;48.726;9.102;2022-11-15T04:03:19;6.40;99.90
15698;DHT22;7949;48.726;9.102;2022-11-15T04:05:47;6.30;99.90
15698;DHT22;7949;48.726;9.102;2022-11-15T04:08:13;6.30;99.90
15698;DHT22;7949;48.726;9.102;2022-11-15T04:10:40;6.50;99.90
15698;DHT22;7949;48.726;9.102;2022-11-15T04:13:07;6.50;99.90
15698;DHT22;7949;48.726;9.102;2022-11-15T04:15:34;7.10;99.90
15698;DHT22;7949;48.726;9.102;2022-11-15T04:18:02;6.50;99.90
15698;DHT22;7949;48.726;9.102;2022-11-15T04:20:30;6.50;99.90
15698;DHT22;7949;48.726;9.102;2022-11-15T04:23:18;6.50;99.90
15698;DHT22;7949;48.726;9.102;2022-11-15T04:26:05;6.50;99.90
15698;DHT22;7949;48.726;9.102;2022-11-15T04:28:32;6.40;99.90
15698;DHT22;7949;48.726;9.102;2022-11-15T04:30:59;6.30;99.90
15698;DHT22;7949;48.726;9.102;2022-11-15T04:33:26;6.20;99.90
15698;DHT22;7949;48.726;9.102;2022-11-15T04:35:53;6.20;99.90
15698;DHT22;7949;48.726;9.102;2022-11-15T04:38:38;6.20;99.90
15698;DHT22;7949;48.726;9.102;2022-11-15T04:41:05;6.20;99.90
15698;DHT22;7949;48.726;9.102;2022-11-15T04:43:31;6.80;99.90
15698;DHT22;7949;48.726;9.102;2022-11-15T04:45:58;6.10;99.90
15698;DHT22;7949;48.726;9.102;2022-11-15T04:48:25;6.30;99.90
15698;DHT22;7949;48.726;9.102;2022-11-15T04:50:52;6.10;99.90
15698;DHT22;7949;48.726;9.102;2022-11-15T04:53:18;6.10;99.90
15698;DHT22;7949;48.726;9.102;2022-11-15T04:55:47;6.10;99.90
15698;DHT22;7949;48.726;9.102;2022-11-15T04:58:13;6.50;99.90
15698;DHT22;7949;48.726;9.102;2022-11-15T05:00:40;6.00;99.90
15698;DHT22;7949;48.726;9.102;2022-11-15T05:03:09;6.00;99.90
15698;DHT22;7949;48.726;9.102;2022-11-15T05:05:53;6.00;99.90
15698;DHT22;7949;48.726;9.102;2022-11-15T05:08:20;6.00;99.90
15698;DHT22;7949;48.726;9.102;2022-11-15T05:10:49;6.10;99.90
15698;DHT22;7949;48.726;9.102;2022-11-15T05:13:15;6.10;99.90
15698;DHT22;7949;48.726;9.102;2022-11-15T05:15:42;6.00;99.90
15698;DHT22;7949;48.726;9.102;2022-11-15T05:18:09;5.90;99.90
15698;DHT22;7949;48.726;9.102;2022-11-15T05:20:36;5.80;99.90
15698;DHT22;7949;48.726;9.102;2022-11-15T05:23:02;5.80;99.90
15698;DHT22;7949;48.726;9.102;2022-11-15T05:25:29;5.80;99.90
15698;DHT22;7949;48.726;9.102;2022-11-15T05:27:57;5.80;99.90
15698;DHT22;7949;48.726;9.102;2022-11-15T05:30:24;5.80;99.90
15698;DHT22;7949;48.726;9.102;2022-11-15T05:32:51;5.80;99.90
15698;DHT22;7949;48.726;9.102;2022-11-15T05:35:21;5.80;99.90
15698;DHT22;7949;48.726;9.102;2022-11-15T05:37:52;6.10;99.90
15698;DHT22;7949;48.726;9.102;2022-11-15T05:40:19;5.90;99.90
15698;DHT22;7949;48.726;9.102;2022-11-15T05:42:46;5.90;99.90
15698;DHT22;7949;48.726;9.102;2022-11-15T05:45:14;5.90;99.90
15698;DHT22;7949;48.726;9.102;2022-11-15T05:47:42;6.00;99.90
15698;DHT22;7949;48.726;9.102;2022-11-15T05:50:11;5.90;99.90
15698;DHT22;7949;48.726;9.102;2022-11-15T05:52:39;6.00;99.90
15698;DHT22;7949;48.726;9.102;2022-11-15T05:55:07;6.10;99.90
15698;DHT22;7949;48.726;9.102;2022-11-15T05:57:35;6.00;99.90
15698;DHT22;7949;48.726;9.102;2022-11-15T06:00:03;6.10;99.90
15698;DHT22;7949;48.726;9.102;2022-11-15T06:02:31;6.00;99.90
15698;DHT22;7949;48.726;9.102;2022-11-15T06:04:58;6.20;99.90
15698;DHT22;7949;48.726;9.102;2022-11-15T06:07:25;6.20;99.90
15698;DHT22;7949;48.726;9.102;2022-11-15T06:09:52;6.30;99.90
15698;DHT22;7949;48.726;9.102;2022-11-15T06:12:19;6.30;99.90
15698;DHT22;7949;48.726;9.102;2022-11-15T06:14:46;6.30;99.90
15698;DHT22;7949;48.726;9.102;2022-11-15T06:17:13;6.40;99.90
15698;DHT22;7949;48.726;9.102;2022-11-15T06:19:41;7.10;99.90
15698;DHT22;7949;48.726;9.102;2022-11-15T06:22:08;6.40;99.90
15698;DHT22;7949;48.726;9.102;2022-11-15T06:24:35;6.40;99.90
15698;DHT22;7949;48.726;9.102;2022-11-15T06:27:02;6.40;99.90
15698;DHT22;7949;48.726;9.102;2022-11-15T06:29:29;6.40;99.90
15698;DHT22;7949;48.726;9.102;2022-11-15T06:31:56;6.40;99.90
15698;DHT22;7949;48.726;9.102;2022-11-15T06:34:23;6.30;99.90
15698;DHT22;7949;48.726;9.102;2022-11-15T06:36:51;6.30;99.90
15698;DHT22;7949;48.726;9.102;2022-11-15T06:39:18;6.30;99.90
15698;DHT22;7949;48.726;9.102;2022-11-15T06:41:45;6.30;99.90
15698;DHT22;7949;48.726;9.102;2022-11-15T06:44:12;6.30;99.90
15698;DHT22;7949;48.726;9.102;2022-11-15T06:46:39;6.40;99.90
15698;DHT22;7949;48.726;9.102;2022-11-15T06:49:06;6.40;99.90
15698;DHT22;7949;48.726;9.102;2022-11-15T06:51:33;6.40;99.90
15698;DHT22;7949;48.726;9.102;2022-11-15T06:54:01;6.50;99.90
15698;DHT22;7949;48.726;9.102;2022-11-15T06:56:28;6.50;99.90
15698;DHT22;7949;48.726;9.102;2022-11-15T06:58:55;6.50;99.90
15698;DHT22;7949;48.726;9.102;2022-11-15T07:01:22;6.60;99.90
15698;DHT22;7949;48.726;9.102;2022-11-15T07:03:49;6.70;99.90
15698;DHT22;7949;48.726;9.102;2022-11-15T07:06:16;6.70;99.90
15698;DHT22;7949;48.726;9.102;2022-11-15T07:08:43;6.70;99.90
15698;DHT22;7949;48.726;9.102;2022-11-15T07:11:11;6.70;99.90
15698;DHT22;7949;48.726;9.102;2022-11-15T07:13:38;6.80;99.90
15698;DHT22;7949;48.726;9.102;2022-11-15T07:16:06;6.80;99.90
15698;DHT22;7949;48.726;9.102;2022-11-15T07:18:34;6.80;99.90
15698;DHT22;7949;48.726;9.102;2022-11-15T07:21:03;6.90;99.90
15698;DHT22;7949;48.726;9.102;2022-11-15T07:23:30;7.10;99.90
15698;DHT22;7949;48.726;9.102;2022-11-15T07:25:57;7.20;99.90
15698;DHT22;7949;48.726;9.102;2022-11-15T07:28:27;7.10;99.90
15698;DHT22;7949;48.726;9.102;2022-11-15T07:30:54;7.20;99.90
15698;DHT22;7949;48.726;9.102;2022-11-15T07:33:21;7.20;99.90
15698;DHT22;7949;48.726;9.102;2022-11-15T07:35:48;7.30;99.90
15698;DHT22;7949;48.726;9.102;2022-11-15T07:38:16;7.40;99.90
15698;DHT22;7949;48.726;9.102;2022-11-15T07:40:45;7.70;99.90
15698;DHT22;7949;48.726;9.102;2022-11-15T07:43:12;7.80;99.90
15698;DHT22;7949;48.726;9.102;2022-11-15T07:45:42;7.90;99.90
15698;DHT22;7949;48.726;9.102;2022-11-15T07:48:10;8.10;99.90
15698;DHT22;7949;48.726;9.102;2022-11-15T07:50:37;8.30;99.90
15698;DHT22;7949;48.726;9.102;2022-11-15T07:53:03;8.40;99.90
15698;DHT22;7949;48.726;9.102;2022-11-15T07:55:30;8.50;99.90
15698;DHT22;7949;48.726;9.102;2022-11-15T07:58:01;8.70;99.90
15698;DHT22;7949;48.726;9.102;2022-11-15T08:00:29;8.80;99.90
15698;DHT22;7949;48.726;9.102;2022-11-15T08:03:03;8.90;99.90
15698;DHT22;7949;48.726;9.102;2022-11-15T08:05:30;9.00;99.90
15698;DHT22;7949;48.726;9.102;2022-11-15T08:07:57;9.10;99.90
15698;DHT22;7949;48.726;9.102;2022-11-15T08:10:25;9.20;99.90
15698;DHT22;7949;48.726;9.102;2022-11-15T08:12:57;9.30;99.90
15698;DHT22;7949;48.726;9.102;2022-11-15T08:15:25;10.00;99.90
15698;DHT22;7949;48.726;9.102;2022-11-15T08:17:56;9.20;99.90
15698;DHT22;7949;48.726;9.102;2022-11-15T08:20:25;9.20;99.90
15698;DHT22;7949;48.726;9.102;2022-11-15T08:22:55;9.20;99.90
15698;DHT22;7949;48.726;9.102;2022-11-15T08:25:22;9.30;99.90
15698;DHT22;7949;48.726;9.102;2022-11-15T08:27:51;9.50;99.90
15698;DHT22;7949;48.726;9.102;2022-11-15T08:30:19;9.60;99.90
15698;DHT22;7949;48.726;9.102;2022-11-15T08:32:46;9.60;99.90
15698;DHT22;7949;48.726;9.102;2022-11-15T08:35:13;9.70;99.90
15698;DHT22;7949;48.726;9.102;2022-11-15T08:37:41;9.90;99.90
15698;DHT22;7949;48.726;9.102;2022-11-15T08:40:09;10.00;99.90
15698;DHT22;7949;48.726;9.102;2022-11-15T08:42:36;10.10;99.90
15698;DHT22;7949;48.726;9.102;2022-11-15T08:45:04;10.30;99.90
15698;DHT22;7949;48.726;9.102;2022-11-15T08:47:31;10.40;99.90
15698;DHT22;7949;48.726;9.102;2022-11-15T08:49:58;10.60;99.90
15698;DHT22;7949;48.726;9.102;2022-11-15T08:52:25;10.70;99.90
15698;DHT22;7949;48.726;9.102;2022-11-15T08:54:55;10.90;99.90
15698;DHT22;7949;48.726;9.102;2022-11-15T08:57:22;11.10;99.90
15698;DHT22;7949;48.726;9.102;2022-11-15T08:59:49;11.30;99.90
15698;DHT22;7949;48.726;9.102;2022-11-15T09:02:16;11.40;99.90
15698;DHT22;7949;48.726;9.102;2022-11-15T09:04:44;11.60;99.90
15698;DHT22;7949;48.726;9.102;2022-11-15T09:07:11;11.70;99.90
15698;DHT22;7949;48.726;9.102;2022-11-15T09:09:38;11.90;99.90
15698;DHT22;7949;48.726;9.102;2022-11-15T09:12:07;12.00;99.90
15698;DHT22;7949;48.726;9.102;2022-11-15T09:14:34;12.20;99.90
15698;DHT22;7949;48.726;9.102;2022-11-15T09:17:02;12.20;99.90
15698;DHT22;7949;48.726;9.102;2022-11-15T09:19:29;12.40;99.90
15698;DHT22;7949;48.726;9.102;2022-11-15T09:21:56;12.50;99.90
15698;DHT22;7949;48.726;9.102;2022-11-15T09:24:23;12.60;99.90
15698;DHT22;7949;48.726;9.102;2022-11-15T09:26:50;12.70;99.90
15698;DHT22;7949;48.726;9.102;2022-11-15T09:29:19;12.80;99.90
15698;DHT22;7949;48.726;9.102;2022-11-15T09:31:45;13.00;99.90
15698;DHT22;7949;48.726;9.102;2022-11-15T09:34:12;13.10;99.90
15698;DHT22;7949;48.726;9.102;2022-11-15T09:36:39;13.30;99.90
15698;DHT22;7949;48.726;9.102;2022-11-15T09:39:06;13.50;99.90
15698;DHT22;7949;48.726;9.102;2022-11-15T09:41:48;13.50;99.90
15698;DHT22;7949;48.726;9.102;2022-11-15T09:44:42;13.60;99.90
15698;DHT22;7949;48.726;9.102;2022-11-15T09:47:35;13.70;99.90
15698;DHT22;7949;48.726;9.102;2022-11-15T09:50:10;13.60;99.90
15698;DHT22;7949;48.726;9.102;2022-11-15T09:52:40;13.70;99.90
15698;DHT22;7949;48.726;9.102;2022-11-15T09:55:09;13.70;99.90
15698;DHT22;7949;48.726;9.102;2022-11-15T09:57:39;13.70;99.90
15698;DHT22;7949;48.726;9.102;2022-11-15T10:00:15;13.70;99.90
15698;DHT22;7949;48.726;9.102;2022-11-15T10:05:47;13.60;99.90
15698;DHT22;7949;48.726;9.102;2022-11-15T10:08:35;13.50;99.90
15698;DHT22;7949;48.726;9.102;2022-11-15T10:11:05;13.50;99.90
15698;DHT22;7949;48.726;9.102;2022-11-15T10:13:35;13.40;99.90
15698;DHT22;7949;48.726;9.102;2022-11-15T10:16:12;13.30;99.90
15698;DHT22;7949;48.726;9.102;2022-11-15T10:18:50;13.30;99.90
15698;DHT22;7949;48.726;9.102;2022-11-15T10:21:20;13.30;99.90
15698;DHT22;7949;48.726;9.102;2022-11-15T10:23:48;13.40;99.90
15698;DHT22;7949;48.726;9.102;2022-11-15T10:26:17;13.40;99.90
15698;DHT22;7949;48.726;9.102;2022-11-15T10:28:44;13.40;99.90
15698;DHT22;7949;48.726;9.102;2022-11-15T10:31:24;13.50;99.90
15698;DHT22;7949;48.726;9.102;2022-11-15T10:33:52;13.50;99.90
15698;DHT22;7949;48.726;9.102;2022-11-15T10:36:25;13.60;99.90
15698;DHT22;7949;48.726;9.102;2022-11-15T10:38:54;13.60;99.90
15698;DHT22;7949;48.726;9.102;2022-11-15T10:41:31;13.60;99.90
15698;DHT22;7949;48.726;9.102;2022-11-15T10:44:28;13.70;99.90
15698;DHT22;7949;48.726;9.102;2022-11-15T10:47:21;13.80;99.90
15698;DHT22;7949;48.726;9.102;2022-11-15T10:50:00;13.80;99.90
15698;DHT22;7949;48.726;9.102;2022-11-15T10:52:29;13.90;99.90
15698;DHT22;7949;48.726;9.102;2022-11-15T10:55:01;13.80;99.90
15698;DHT22;7949;48.726;9.102;2022-11-15T10:57:31;13.90;99.90
15698;DHT22;7949;48.726;9.102;2022-11-15T11:00:01;14.00;99.90
15698;DHT22;7949;48.726;9.102;2022-11-15T11:02:35;14.00;99.90
15698;DHT22;7949;48.726;9.102;2022-11-15T11:05:04;14.00;99.90
15698;DHT22;7949;48.726;9.102;2022-11-15T11:07:34;13.90;99.90
15698;DHT22;7949;48.726;9.102;2022-11-15T11:10:04;13.90;99.90
15698;DHT22;7949;48.726;9.102;2022-11-15T11:12:32;13.90;99.90
15698;DHT22;7949;48.726;9.102;2022-11-15T11:15:05;13.90;99.90
15698;DHT22;7949;48.726;9.102;2022-11-15T11:17:57;13.90;99.90
15698;DHT22;7949;48.726;9.102;2022-11-15T11:20:29;14.00;99.90
15698;DHT22;7949;48.726;9.102;2022-11-15T11:23:18;14.10;99.90
15698;DHT22;7949;48.726;9.102;2022-11-15T11:25:54;14.20;99.90
15698;DHT22;7949;48.726;9.102;2022-11-15T11:28:36;14.30;99.90
15698;DHT22;7949;48.726;9.102;2022-11-15T11:31:17;14.20;99.90
15698;DHT22;7949;48.726;9.102;2022-11-15T11:33:55;14.20;99.90
15698;DHT22;7949;48.726;9.102;2022-11-15T11:36:27;14.30;99.90
15698;DHT22;7949;48.726;9.102;2022-11-15T11:39:07;14.30;99.90
15698;DHT22;7949;48.726;9.102;2022-11-15T11:41:46;14.40;99.90
15698;DHT22;7949;48.726;9.102;2022-11-15T11:44:28;14.50;99.90
15698;DHT22;7949;48.726;9.102;2022-11-15T11:47:00;14.50;99.90
15698;DHT22;7949;48.726;9.102;2022-11-15T11:49:34;14.60;99.90
15698;DHT22;7949;48.726;9.102;2022-11-15T11:52:09;14.60;99.90
15698;DHT22;7949;48.726;9.102;2022-11-15T11:54:44;14.60;99.90
15698;DHT22;7949;48.726;9.102;2022-11-15T11:57:17;15.00;99.90
15698;DHT22;7949;48.726;9.102;2022-11-15T11:59:50;14.70;99.90
15698;DHT22;7949;48.726;9.102;2022-11-15T12:02:26;14.80;99.90
15698;DHT22;7949;48.726;9.102;2022-11-15T12:05:01;14.80;99.90
15698;DHT22;7949;48.726;9.102;2022-11-15T12:07:33;14.80;99.90
15698;DHT22;7949;48.726;9.102;2022-11-15T12:10:04;14.90;99.90
15698;DHT22;7949;48.726;9.102;2022-11-15T12:12:36;14.90;99.90
15698;DHT22;7949;48.726;9.102;2022-11-15T12:15:14;14.90;99.90
15698;DHT22;7949;48.726;9.102;2022-11-15T12:17:42;14.90;99.90
15698;DHT22;7949;48.726;9.102;2022-11-15T12:20:17;14.80;99.90
15698;DHT22;7949;48.726;9.102;2022-11-15T12:22:49;14.80;99.90
15698;DHT22;7949;48.726;9.102;2022-11-15T12:25:20;14.70;99.90
15698;DHT22;7949;48.726;9.102;2022-11-15T12:27:53;14.60;99.90
15698;DHT22;7949;48.726;9.102;2022-11-15T12:30:22;14.60;99.90
15698;DHT22;7949;48.726;9.102;2022-11-15T12:32:51;14.50;99.90
15698;DHT22;7949;48.726;9.102;2022-11-15T12:35:32;14.40;99.90
15698;DHT22;7949;48.726;9.102;2022-11-15T12:38:00;14.40;99.90
15698;DHT22;7949;48.726;9.102;2022-11-15T12:40:35;14.30;99.90
15698;DHT22;7949;48.726;9.102;2022-11-15T12:46:03;14.20;99.90
15698;DHT22;7949;48.726;9.102;2022-11-15T12:48:49;14.20;99.90
15698;DHT22;7949;48.726;9.102;2022-11-15T12:51:20;14.20;99.90
15698;DHT22;7949;48.726;9.102;2022-11-15T12:53:46;14.30;99.90
15698;DHT22;7949;48.726;9.102;2022-11-15T12:56:21;14.30;99.90
15698;DHT22;7949;48.726;9.102;2022-11-15T12:58:51;14.20;99.90
15698;DHT22;7949;48.726;9.102;2022-11-15T13:01:55;14.20;99.90
15698;DHT22;7949;48.726;9.102;2022-11-15T13:04:25;14.10;99.90
15698;DHT22;7949;48.726;9.102;2022-11-15T13:06:55;14.10;99.90
15698;DHT22;7949;48.726;9.102;2022-11-15T13:09:51;14.00;99.90
15698;DHT22;7949;48.726;9.102;2022-11-15T13:12:49;14.00;99.90
15698;DHT22;7949;48.726;9.102;2022-11-15T13:15:36;14.00;99.90
15698;DHT22;7949;48.726;9.102;2022-11-15T13:18:26;14.00;99.90
15698;DHT22;7949;48.726;9.102;2022-11-15T13:20:54;14.00;99.90
15698;DHT22;7949;48.726;9.102;2022-11-15T13:23:22;14.10;99.90
15698;DHT22;7949;48.726;9.102;2022-11-15T13:26:06;14.10;99.90
15698;DHT22;7949;48.726;9.102;2022-11-15T13:28:38;14.10;99.90
15698;DHT22;7949;48.726;9.102;2022-11-15T13:31:19;14.00;99.90
15698;DHT22;7949;48.726;9.102;2022-11-15T13:33:47;14.00;99.90
15698;DHT22;7949;48.726;9.102;2022-11-15T13:36:18;14.00;99.90
15698;DHT22;7949;48.726;9.102;2022-11-15T13:38:54;14.00;99.90
15698;DHT22;7949;48.726;9.102;2022-11-15T13:41:23;14.00;99.90
15698;DHT22;7949;48.726;9.102;2022-11-15T13:43:51;13.90;99.90
15698;DHT22;7949;48.726;9.102;2022-11-15T13:46:20;14.00;99.90
15698;DHT22;7949;48.726;9.102;2022-11-15T13:48:52;13.80;99.90
15698;DHT22;7949;48.726;9.102;2022-11-15T13:51:24;13.70;99.90
15698;DHT22;7949;48.726;9.102;2022-11-15T13:54:02;13.70;99.90
15698;DHT22;7949;48.726;9.102;2022-11-15T13:56:33;13.60;99.90
15698;DHT22;7949;48.726;9.102;2022-11-15T13:59:01;13.80;99.90
15698;DHT22;7949;48.726;9.102;2022-11-15T14:01:34;13.50;99.90
15698;DHT22;7949;48.726;9.102;2022-11-15T14:04:01;13.40;99.90
15698;DHT22;7949;48.726;9.102;2022-11-15T14:06:30;13.30;99.90
15698;DHT22;7949;48.726;9.102;2022-11-15T14:12:01;13.00;99.90
15698;DHT22;7949;48.726;9.102;2022-11-15T14:14:29;13.00;99.90
15698;DHT22;7949;48.726;9.102;2022-11-15T14:16:57;13.00;99.90
15698;DHT22;7949;48.726;9.102;2022-11-15T14:19:36;13.10;99.90
15698;DHT22;7949;48.726;9.102;2022-11-15T14:22:15;13.10;99.90
15698;DHT22;7949;48.726;9.102;2022-11-15T14:24:44;13.70;99.90
15698;DHT22;7949;48.726;9.102;2022-11-15T14:27:24;13.20;99.90
15698;DHT22;7949;48.726;9.102;2022-11-15T14:29:52;13.00;99.90
15698;DHT22;7949;48.726;9.102;2022-11-15T14:32:21;12.90;99.90
15698;DHT22;7949;48.726;9.102;2022-11-15T14:34:48;12.90;99.90
15698;DHT22;7949;48.726;9.102;2022-11-15T14:37:20;12.90;99.90
15698;DHT22;7949;48.726;9.102;2022-11-15T14:39:48;12.80;99.90
15698;DHT22;7949;48.726;9.102;2022-11-15T14:42:15;13.00;99.90
15698;DHT22;7949;48.726;9.102;2022-11-15T14:44:44;12.70;99.90
15698;DHT22;7949;48.726;9.102;2022-11-15T14:47:11;12.70;99.90
15698;DHT22;7949;48.726;9.102;2022-11-15T14:49:38;12.70;99.90
15698;DHT22;7949;48.726;9.102;2022-11-15T14:52:16;12.90;99.90
15698;DHT22;7949;48.726;9.102;2022-11-15T14:54:46;12.50;99.90
15698;DHT22;7949;48.726;9.102;2022-11-15T14:57:13;12.50;99.90
15698;DHT22;7949;48.726;9.102;2022-11-15T14:59:39;12.40;99.90
15698;DHT22;7949;48.726;9.102;2022-11-15T15:02:15;12.40;99.90
15698;DHT22;7949;48.726;9.102;2022-11-15T15:04:42;12.40;99.90
15698;DHT22;7949;48.726;9.102;2022-11-15T15:07:09;12.40;99.90
15698;DHT22;7949;48.726;9.102;2022-11-15T15:09:36;12.30;99.90
15698;DHT22;7949;48.726;9.102;2022-11-15T15:12:04;12.20;99.90
15698;DHT22;7949;48.726;9.102;2022-11-15T15:14:32;12.20;99.90
15698;DHT22;7949;48.726;9.102;2022-11-15T15:16:59;12.10;99.90
15698;DHT22;7949;48.726;9.102;2022-11-15T15:19:27;12.10;99.90
15698;DHT22;7949;48.726;9.102;2022-11-15T15:21:57;12.00;99.90
15698;DHT22;7949;48.726;9.102;2022-11-15T15:24:24;11.90;99.90
15698;DHT22;7949;48.726;9.102;2022-11-15T15:26:53;11.90;99.90
15698;DHT22;7949;48.726;9.102;2022-11-15T15:29:20;11.80;99.90
15698;DHT22;7949;48.726;9.102;2022-11-15T15:31:47;11.80;99.90
15698;DHT22;7949;48.726;9.102;2022-11-15T15:34:14;11.80;99.90
15698;DHT22;7949;48.726;9.102;2022-11-15T15:36:43;11.70;99.90
15698;DHT22;7949;48.726;9.102;2022-11-15T15:39:10;11.70;99.90
15698;DHT22;7949;48.726;9.102;2022-11-15T15:41:37;11.70;99.90
15698;DHT22;7949;48.726;9.102;2022-11-15T15:44:04;11.70;99.90
15698;DHT22;7949;48.726;9.102;2022-11-15T15:46:32;11.60;99.90
15698;DHT22;7949;48.726;9.102;2022-11-15T15:48:59;11.40;99.90
15698;DHT22;7949;48.726;9.102;2022-11-15T15:51:26;11.60;99.90
15698;DHT22;7949;48.726;9.102;2022-11-15T15:53:55;11.60;99.90
15698;DHT22;7949;48.726;9.102;2022-11-15T15:56:23;11.50;99.90
15698;DHT22;7949;48.726;9.102;2022-11-15T15:58:50;11.60;99.90
15698;DHT22;7949;48.726;9.102;2022-11-15T16:01:18;11.50;99.90
15698;DHT22;7949;48.726;9.102;2022-11-15T16:03:45;11.50;99.90
15698;DHT22;7949;48.726;9.102;2022-11-15T16:06:35;11.50;99.90
15698;DHT22;7949;48.726;9.102;2022-11-15T16:09:04;11.50;99.90
15698;DHT22;7949;48.726;9.102;2022-11-15T16:11:31;11.50;99.90
15698;DHT22;7949;48.726;9.102;2022-11-15T16:13:59;11.40;99.90
15698;DHT22;7949;48.726;9.102;2022-11-15T16:16:26;11.70;99.90
15698;DHT22;7949;48.726;9.102;2022-11-15T16:18:53;11.30;99.90
15698;DHT22;7949;48.726;9.102;2022-11-15T16:21:20;11.40;99.90
15698;DHT22;7949;48.726;9.102;2022-11-15T16:23:47;11.40;99.90
15698;DHT22;7949;48.726;9.102;2022-11-15T16:26:20;12.00;99.90
15698;DHT22;7949;48.726;9.102;2022-11-15T16:28:47;11.40;99.90